Time;durP1;ratioP1;P1;durP2;ratioP2;P2;SDS_P1;SDS_P2;PMS_P1;PMS_P2;Temp;Humidity;BMP_temperature;BMP_pressure;BME280_temperature;BME280_humidity;BME280_pressure;Samples;Min_cycle;Max_cycle;Signal;HPM_P1;HPM_P2
2022/04/15 00:00:26;;;;;;;13.53;4.73;;;9.10;99.90;;;;;;5055065;28;20123;-75
2022/04/15 00:02:52;;;;;;;10.20;4.57;;;9.10;99.90;;;;;;5055144;28;20688;-75
2022/04/15 00:05:36;;;;;;;12.07;4.20;;;9.20;99.90;;;;;;5054858;28;20319;-76
2022/04/15 00:08:12;;;;;;;11.33;4.03;;;9.10;99.90;;;;;;5037722;28;20500;-75
2022/04/15 00:10:46;;;;;;;16.43;4.37;;;9.10;99.90;;;;;;5055065;28;20294;-75
2022/04/15 00:13:14;;;;;;;9.67;4.23;;;9.10;99.90;;;;;;5054977;28;20310;-75
2022/04/15 00:15:40;;;;;;;9.93;3.93;;;9.10;99.90;;;;;;5054634;28;20294;-75
2022/04/15 00:18:06;;;;;;;10.73;4.67;;;9.10;99.90;;;;;;5054568;28;20601;-75
2022/04/15 00:20:32;;;;;;;10.80;4.70;;;9.10;99.90;;;;;;5054551;28;20330;-75
2022/04/15 00:22:58;;;;;;;10.17;3.93;;;9.10;99.90;;;;;;5054563;28;20045;-76
2022/04/15 00:25:25;;;;;;;8.73;3.90;;;9.00;99.90;;;;;;5053799;28;20290;-76
2022/04/15 00:27:51;;;;;;;10.47;4.03;;;9.00;99.90;;;;;;5055195;28;20591;-75
2022/04/15 00:30:17;;;;;;;10.20;4.50;;;9.00;99.90;;;;;;5054796;28;20299;-76
2022/04/15 00:32:43;;;;;;;9.67;4.03;;;9.00;99.90;;;;;;5054283;28;20332;-75
2022/04/15 00:35:10;;;;;;;12.03;5.10;;;8.90;99.90;;;;;;5054336;28;20271;-76
2022/04/15 00:37:36;;;;;;;8.30;4.30;;;8.80;99.90;;;;;;5054430;28;20052;-75
2022/04/15 00:40:03;;;;;;;10.53;4.93;;;8.90;99.90;;;;;;5054197;28;20624;-76
2022/04/15 00:42:32;;;;;;;9.13;4.00;;;8.80;99.90;;;;;;5054630;28;20502;-75
2022/04/15 00:44:59;;;;;;;9.00;3.80;;;8.90;99.90;;;;;;5037014;28;20622;-75
2022/04/15 00:47:51;;;;;;;7.40;3.60;;;8.90;99.90;;;;;;5054134;28;20342;-75
2022/04/15 00:50:22;;;;;;;10.17;4.70;;;8.80;99.90;;;;;;5053601;28;20624;-75
2022/04/15 00:52:49;;;;;;;10.07;4.80;;;8.80;99.90;;;;;;5054451;28;20719;-75
2022/04/15 00:55:16;;;;;;;9.60;4.13;;;8.70;99.90;;;;;;5053821;28;20314;-76
2022/04/15 00:57:44;;;;;;;6.87;3.87;;;8.70;99.90;;;;;;5054343;28;20287;-75
2022/04/15 01:00:13;;;;;;;9.07;4.50;;;8.70;99.90;;;;;;5052627;28;20757;-75
2022/04/15 01:02:39;;;;;;;7.73;3.50;;;8.70;99.90;;;;;;5053707;28;20284;-75
2022/04/15 01:05:08;;;;;;;12.60;4.77;;;8.80;99.90;;;;;;5053411;28;20793;-75
2022/04/15 01:07:39;;;;;;;12.80;4.43;;;8.80;99.90;;;;;;5053937;28;20601;-75
2022/04/15 01:10:12;;;;;;;8.43;3.93;;;8.80;99.90;;;;;;5053915;28;20378;-75
2022/04/15 01:12:40;;;;;;;10.07;4.03;;;8.90;99.90;;;;;;5053630;28;20276;-75
2022/04/15 01:15:09;;;;;;;12.27;4.40;;;8.90;99.90;;;;;;5053502;28;20374;-75
2022/04/15 01:17:36;;;;;;;10.20;4.23;;;9.00;99.90;;;;;;5054065;28;20285;-75
2022/04/15 01:20:10;;;;;;;8.13;3.90;;;9.00;99.90;;;;;;5053170;28;20802;-75
2022/04/15 01:22:38;;;;;;;7.68;3.40;;;9.00;99.90;;;;;;5053828;28;20350;-74
2022/04/15 01:25:06;;;;;;;8.23;4.20;;;9.00;99.90;;;;;;5053328;28;20044;-75
2022/04/15 01:27:38;;;;;;;7.47;3.90;;;9.00;99.90;;;;;;5053887;28;20663;-76
2022/04/15 01:30:06;;;;;;;9.07;3.80;;;9.10;99.90;;;;;;5053201;28;20349;-76
2022/04/15 01:32:31;;;;;;;10.07;4.10;;;9.10;99.90;;;;;;5052941;28;20805;-75
2022/04/15 01:34:57;;;;;;;12.60;4.63;;;9.20;99.90;;;;;;5035463;28;20283;-75
2022/04/15 01:37:23;;;;;;;8.17;3.90;;;9.10;99.90;;;;;;5053304;28;20041;-75
2022/04/15 01:39:50;;;;;;;9.50;3.40;;;9.10;99.90;;;;;;5053215;28;20087;-75
2022/04/15 01:42:17;;;;;;;7.63;3.77;;;9.10;99.90;;;;;;5053197;28;20060;-75
2022/04/15 01:44:43;;;;;;;8.23;4.20;;;9.10;99.90;;;;;;5053032;28;20284;-75
2022/04/15 01:47:10;;;;;;;7.87;3.77;;;9.10;99.90;;;;;;5035757;28;20780;-75
2022/04/15 01:49:37;;;;;;;6.77;3.33;;;9.20;99.90;;;;;;5053224;28;20311;-76
2022/04/15 01:52:04;;;;;;;6.93;3.63;;;9.20;99.90;;;;;;5053126;28;20354;-75
2022/04/15 01:54:30;;;;;;;7.23;3.67;;;9.20;99.90;;;;;;5053000;28;20275;-76
2022/04/15 01:56:57;;;;;;;7.40;3.90;;;9.20;99.90;;;;;;5052993;28;20286;-75
2022/04/15 01:59:23;;;;;;;7.80;3.73;;;9.20;99.90;;;;;;5053515;28;20048;-75
2022/04/15 02:01:50;;;;;;;7.70;3.80;;;9.30;99.90;;;;;;5055662;28;20275;-75
2022/04/15 02:04:15;;;;;;;8.00;4.07;;;9.30;99.90;;;;;;5057640;28;20329;-75
2022/04/15 02:06:41;;;;;;;7.43;3.77;;;9.20;99.90;;;;;;5040157;28;20616;-74
2022/04/15 02:09:07;;;;;;;10.50;4.33;;;9.30;99.90;;;;;;5057545;28;20049;-76
2022/04/15 02:11:34;;;;;;;10.30;4.13;;;9.30;99.90;;;;;;5056463;28;20045;-75
2022/04/15 02:14:00;;;;;;;10.67;3.80;;;9.20;99.90;;;;;;5056932;28;20484;-75
2022/04/15 02:16:25;;;;;;;7.90;4.10;;;9.30;99.90;;;;;;5056561;28;20282;-76
2022/04/15 02:18:51;;;;;;;7.40;3.83;;;9.30;99.90;;;;;;5056460;28;20067;-75
2022/04/15 02:21:17;;;;;;;9.30;4.23;;;9.30;99.90;;;;;;5056800;28;20045;-75
2022/04/15 02:23:42;;;;;;;9.43;4.57;;;9.30;99.90;;;;;;5056702;28;20127;-74
2022/04/15 02:26:08;;;;;;;9.90;4.90;;;9.30;99.90;;;;;;5056992;28;20492;-75
2022/04/15 02:28:34;;;;;;;10.67;4.60;;;9.30;99.90;;;;;;5039827;28;20117;-75
2022/04/15 02:30:59;;;;;;;9.63;4.63;;;9.30;99.90;;;;;;5056619;28;20052;-75
2022/04/15 02:33:25;;;;;;;11.33;4.80;;;9.40;99.90;;;;;;5056602;28;20044;-76
2022/04/15 02:35:51;;;;;;;8.90;4.20;;;9.30;99.90;;;;;;5056533;28;20045;-75
2022/04/15 02:38:17;;;;;;;12.20;4.13;;;9.30;99.90;;;;;;5039509;28;20183;-75
2022/04/15 02:40:43;;;;;;;9.70;4.00;;;9.40;99.90;;;;;;5056777;28;20056;-75
2022/04/15 02:43:10;;;;;;;7.73;4.40;;;9.40;99.90;;;;;;5056555;28;20447;-75
2022/04/15 02:45:36;;;;;;;9.57;4.33;;;9.40;99.90;;;;;;5056494;28;20287;-75
2022/04/15 02:48:02;;;;;;;9.50;4.33;;;9.40;99.90;;;;;;5056259;28;20333;-75
2022/04/15 02:50:28;;;;;;;8.10;3.60;;;9.40;99.90;;;;;;5056369;28;20056;-76
2022/04/15 02:52:54;;;;;;;7.47;4.13;;;9.50;99.90;;;;;;5056379;28;20133;-75
2022/04/15 02:55:19;;;;;;;7.97;3.73;;;9.50;99.90;;;;;;5056318;28;20362;-75
2022/04/15 02:57:45;;;;;;;10.77;3.83;;;9.40;99.90;;;;;;5039530;28;20041;-75
2022/04/15 03:00:13;;;;;;;9.07;3.40;;;9.40;99.90;;;;;;5056564;28;20041;-75
2022/04/15 03:02:38;;;;;;;11.93;3.83;;;9.50;99.90;;;;;;5056206;28;20056;-76
2022/04/15 03:05:06;;;;;;;8.50;3.50;;;9.40;99.90;;;;;;5056183;28;20280;-75
2022/04/15 03:07:32;;;;;;;11.77;3.80;;;9.50;99.90;;;;;;5038604;28;20048;-76
2022/04/15 03:09:58;;;;;;;7.73;3.03;;;9.40;99.90;;;;;;5056449;28;20302;-75
2022/04/15 03:12:24;;;;;;;10.47;3.23;;;9.40;99.90;;;;;;5056039;28;20046;-76
2022/04/15 03:14:51;;;;;;;7.73;2.93;;;9.30;99.90;;;;;;5054988;28;20044;-75
2022/04/15 03:17:16;;;;;;;8.77;3.40;;;9.30;99.90;;;;;;5055638;28;20504;-76
2022/04/15 03:19:42;;;;;;;11.83;4.07;;;9.30;99.90;;;;;;5055833;28;20315;-75
2022/04/15 03:22:08;;;;;;;11.17;3.87;;;9.30;99.90;;;;;;5054686;28;20041;-75
2022/04/15 03:24:33;;;;;;;11.30;4.03;;;9.40;99.90;;;;;;5055797;28;20045;-76
2022/04/15 03:26:59;;;;;;;13.37;4.30;;;9.40;99.90;;;;;;5055734;28;20041;-75
2022/04/15 03:29:25;;;;;;;10.63;4.03;;;9.40;99.90;;;;;;5037977;28;20400;-76
2022/04/15 03:31:51;;;;;;;10.77;4.23;;;9.40;99.90;;;;;;5037845;28;20045;-75
2022/04/15 03:34:18;;;;;;;11.93;4.10;;;9.40;99.90;;;;;;5055631;28;20325;-76
2022/04/15 03:36:45;;;;;;;7.57;3.67;;;9.40;99.90;;;;;;5055602;28;20752;-76
2022/04/15 03:39:11;;;;;;;11.00;4.17;;;9.40;99.90;;;;;;5055992;28;20090;-76
2022/04/15 03:41:37;;;;;;;6.93;3.70;;;9.20;99.90;;;;;;5055977;28;20299;-76
2022/04/15 03:44:04;;;;;;;9.27;3.97;;;9.20;99.90;;;;;;5055463;28;20267;-75
2022/04/15 03:46:29;;;;;;;10.73;4.00;;;9.20;99.90;;;;;;5055697;28;20395;-75
2022/04/15 03:48:55;;;;;;;13.53;4.40;;;9.30;99.90;;;;;;5055402;28;20390;-75
2022/04/15 03:51:21;;;;;;;11.07;4.40;;;9.30;99.90;;;;;;5055371;28;20076;-76
2022/04/15 03:53:46;;;;;;;14.43;4.83;;;9.30;99.90;;;;;;5055289;28;20560;-75
2022/04/15 03:56:12;;;;;;;10.50;4.70;;;9.30;99.90;;;;;;5055201;28;20048;-75
2022/04/15 03:58:38;;;;;;;9.03;4.83;;;9.30;99.90;;;;;;5055751;28;20043;-76
2022/04/15 04:01:04;;;;;;;8.10;3.83;;;9.30;99.90;;;;;;5055663;28;20122;-75
2022/04/15 04:03:29;;;;;;;10.87;4.67;;;9.30;99.90;;;;;;5055496;28;20044;-75
2022/04/15 04:05:55;;;;;;;10.30;5.27;;;9.30;99.90;;;;;;5055057;28;20044;-75
2022/04/15 04:08:21;;;;;;;11.37;4.77;;;9.30;99.90;;;;;;5054994;28;20123;-75
2022/04/15 04:10:46;;;;;;;8.13;4.73;;;9.30;99.90;;;;;;5055483;28;20060;-76
2022/04/15 04:13:12;;;;;;;10.90;5.50;;;9.40;99.90;;;;;;5055453;28;20389;-75
2022/04/15 04:15:38;;;;;;;11.37;5.83;;;9.40;99.90;;;;;;5037867;28;20044;-76
2022/04/15 04:18:04;;;;;;;12.60;6.00;;;9.40;99.90;;;;;;5054840;28;20055;-76
2022/04/15 04:20:30;;;;;;;11.17;6.40;;;9.30;99.90;;;;;;5054822;28;20045;-75
2022/04/15 04:22:56;;;;;;;12.77;7.03;;;9.30;99.90;;;;;;5054535;28;20084;-75
2022/04/15 04:25:22;;;;;;;10.77;6.97;;;9.30;99.90;;;;;;5054367;28;20325;-75
2022/04/15 04:27:48;;;;;;;12.77;7.77;;;9.20;99.90;;;;;;5054644;28;20472;-76
2022/04/15 04:30:15;;;;;;;11.50;7.67;;;9.20;99.90;;;;;;5054509;28;20047;-75
2022/04/15 04:32:42;;;;;;;13.93;8.87;;;9.10;99.90;;;;;;5054602;28;20287;-75
2022/04/15 04:35:08;;;;;;;15.97;9.70;;;9.10;99.90;;;;;;5054495;28;20775;-75
2022/04/15 04:37:34;;;;;;;13.43;8.57;;;9.20;99.90;;;;;;5054428;28;20275;-75
2022/04/15 04:40:00;;;;;;;13.30;9.33;;;9.10;99.90;;;;;;5054429;28;20324;-76
2022/04/15 04:42:27;;;;;;;16.70;9.53;;;9.10;99.90;;;;;;5054719;28;20284;-75
2022/04/15 04:44:53;;;;;;;15.57;9.53;;;9.00;99.90;;;;;;5055072;28;20276;-76
2022/04/15 04:47:20;;;;;;;13.30;8.60;;;9.00;99.90;;;;;;5054185;28;20324;-75
2022/04/15 04:49:46;;;;;;;11.40;8.00;;;8.90;99.90;;;;;;5053736;28;20307;-75
2022/04/15 04:52:12;;;;;;;13.03;8.20;;;8.90;99.90;;;;;;5054152;28;20283;-75
2022/04/15 04:54:39;;;;;;;11.33;6.90;;;8.80;99.90;;;;;;5052986;28;20279;-75
2022/04/15 04:57:05;;;;;;;9.13;6.37;;;8.80;99.90;;;;;;5054130;28;20283;-75
2022/04/15 04:59:32;;;;;;;12.07;7.00;;;8.80;99.90;;;;;;5054035;28;20283;-75
2022/04/15 05:01:58;;;;;;;9.20;6.97;;;8.80;99.90;;;;;;5054026;28;20288;-75
2022/04/15 05:04:24;;;;;;;10.30;6.40;;;8.80;99.90;;;;;;5053959;28;20310;-75
2022/04/15 05:06:49;;;;;;;9.23;6.03;;;8.80;99.90;;;;;;5054700;28;20755;-75
2022/04/15 05:09:18;;;;;;;7.87;5.00;;;8.80;99.90;;;;;;5053805;28;20041;-75
2022/04/15 05:11:44;;;;;;;8.23;5.60;;;8.80;99.90;;;;;;5053924;28;20052;-75
2022/04/15 05:14:09;;;;;;;8.80;5.00;;;8.70;99.90;;;;;;5053774;28;20283;-75
2022/04/15 05:16:35;;;;;;;7.33;5.20;;;8.70;99.90;;;;;;5053839;28;20092;-75
2022/04/15 05:19:01;;;;;;;10.43;5.23;;;;;;;;;;5053735;28;20060;-74
2022/04/15 05:21:27;;;;;;;7.27;4.67;;;;;;;;;;5052494;28;20059;-75
2022/04/15 05:23:53;;;;;;;7.03;5.20;;;;;;;;;;5053620;28;20370;-75
2022/04/15 05:26:20;;;;;;;7.60;5.00;;;;;;;;;;5053545;28;20280;-75
2022/04/15 05:28:46;;;;;;;7.60;4.20;;;;;;;;;;5053517;28;20795;-75
2022/04/15 05:31:12;;;;;;;9.40;4.60;;;;;;;;;;5053511;28;20357;-75
2022/04/15 05:33:39;;;;;;;6.07;4.10;;;;;;;;;;5053766;28;20283;-75
2022/04/15 05:36:05;;;;;;;6.93;4.37;;;;;;;;;;5052585;28;20344;-74
2022/04/15 05:38:31;;;;;;;8.53;3.90;;;;;;;;;;5035656;28;20291;-75
2022/04/15 05:40:57;;;;;;;6.87;4.17;;;;;;;;;;5053479;28;20278;-75
2022/04/15 05:43:23;;;;;;;6.73;3.80;;;;;;;;;;5035413;28;20348;-75
2022/04/15 05:45:49;;;;;;;6.00;3.60;;;;;;;;;;5035954;28;20306;-75
2022/04/15 05:48:15;;;;;;;7.53;3.30;;;;;;;;;;5035507;28;20409;-74
2022/04/15 05:50:42;;;;;;;4.67;2.97;;;;;;;;;;5053353;28;20319;-75
2022/04/15 05:53:08;;;;;;;8.30;2.87;;;;;;;;;;5035607;28;20430;-74
2022/04/15 05:55:35;;;;;;;5.47;2.17;;;;;;;;;;5054004;28;20310;-74
2022/04/15 05:58:02;;;;;;;4.60;2.50;;;;;;;;;;5053083;28;20287;-75
2022/04/15 06:00:28;;;;;;;5.07;2.50;;;;;;;;;;5053921;28;20287;-75
2022/04/15 06:02:54;;;;;;;3.90;2.10;;;;;;;;;;5053984;28;20279;-75
2022/04/15 06:05:20;;;;;;;3.75;2.17;;;;;;;;;;5053121;28;20362;-75
2022/04/15 06:07:46;;;;;;;4.77;1.73;;;;;;;;;;5035857;28;20045;-75
2022/04/15 06:10:12;;;;;;;4.47;1.90;;;;;;;;;;5053013;28;20322;-74
2022/04/15 06:12:57;;;;;;;5.93;2.27;;;;;;;;;;5051725;28;20292;-75
2022/04/15 06:15:24;;;;;;;2.47;1.60;;;;;;;;;;5052867;28;20738;-75
2022/04/15 06:17:51;;;;;;;3.70;2.13;;;;;;;;;;5053185;28;20059;-75
2022/04/15 06:20:17;;;;;;;5.00;2.00;;;;;;;;;;5052915;28;20283;-75
2022/04/15 06:22:44;;;;;;;11.17;2.63;;;;;;;;;;5036049;28;20326;-75
2022/04/15 06:25:11;;;;;;;4.07;2.30;;;;;;;;;;5052777;28;20337;-75
2022/04/15 06:27:37;;;;;;;4.43;1.90;;;;;;;;;;5052843;28;20310;-75
2022/04/15 06:30:03;;;;;;;4.77;2.17;;;;;;;;;;5053199;28;20295;-75
2022/04/15 06:32:30;;;;;;;5.67;2.23;;;;;;;;;;5053236;28;20294;-75
2022/04/15 06:34:56;;;;;;;4.63;2.30;;;;;;;;;;5052738;28;20372;-75
2022/04/15 06:37:22;;;;;;;4.60;2.73;;;;;;;;;;5052657;28;20371;-75
2022/04/15 06:39:50;;;;;;;5.33;2.50;;;;;;;;;;5052664;28;20276;-74
2022/04/15 06:42:21;;;;;;;7.20;2.73;;;;;;;;;;5052625;28;20294;-75
2022/04/15 06:44:47;;;;;;;7.40;2.80;;;;;;;;;;5053202;28;20276;-75
2022/04/15 06:47:13;;;;;;;5.07;2.77;;;;;;;;;;5037134;28;20295;-75
2022/04/15 06:49:39;;;;;;;5.30;2.80;;;;;;;;;;5056322;28;20299;-74
2022/04/15 06:52:06;;;;;;;5.70;2.70;;;;;;;;;;5056359;28;20287;-75
2022/04/15 06:54:32;;;;;;;5.90;3.30;;;;;;;;;;5056313;28;20294;-75
2022/04/15 06:56:58;;;;;;;7.60;4.13;;;;;;;;;;5056542;28;20813;-75
2022/04/15 06:59:24;;;;;;;7.80;4.93;;;;;;;;;;5056601;28;20759;-74
2022/04/15 07:01:50;;;;;;;7.57;4.83;;;;;;;;;;5056296;28;20287;-75
2022/04/15 07:04:16;;;;;;;9.50;4.93;;;;;;;;;;5056740;28;20305;-74
2022/04/15 07:06:43;;;;;;;8.90;5.13;;;;;;;;;;5056265;28;20288;-75
2022/04/15 07:09:09;;;;;;;9.97;5.83;;;;;;;;;;5038383;28;20337;-75
2022/04/15 07:11:35;;;;;;;9.00;6.10;;;;;;;;;;5056937;28;20287;-75
2022/04/15 07:14:01;;;;;;;11.40;7.37;;;;;;;;;;5056128;28;20283;-75
2022/04/15 07:16:27;;;;;;;9.17;6.23;;;;;;;;;;5056041;28;20286;-75
2022/04/15 07:18:56;;;;;;;12.27;8.77;;;;;;;;;;5038572;28;20295;-75
2022/04/15 07:21:22;;;;;;;16.87;8.77;;;;;;;;;;5038933;28;20280;-75
2022/04/15 07:23:49;;;;;;;12.20;7.87;;;;;;;;;;5055853;28;20283;-75
2022/04/15 07:26:15;;;;;;;10.73;6.67;;;;;;;;;;5055805;28;20320;-74
2022/04/15 07:28:41;;;;;;;12.70;7.20;;;;;;;;;;5055721;28;20366;-75
2022/04/15 07:31:07;;;;;;;11.23;7.33;;;;;;;;;;5055470;28;20923;-75
2022/04/15 07:33:33;;;;;;;15.70;8.40;;;;;;;;;;5055701;28;20287;-75
2022/04/15 07:35:59;;;;;;;11.33;7.73;;;;;;;;;;5055648;28;20677;-75
2022/04/15 07:38:25;;;;;;;10.90;7.80;;;;;;;;;;5055671;28;20830;-75
2022/04/15 07:40:51;;;;;;;12.40;7.80;;;;;;;;;;5055567;28;20366;-75
2022/04/15 07:43:18;;;;;;;13.53;8.30;;;;;;;;;;5055774;28;20285;-74
2022/04/15 07:45:44;;;;;;;14.03;8.70;;;;;;;;;;5055541;28;20293;-75
2022/04/15 07:48:12;;;;;;;14.40;9.60;;;;;;;;;;5055263;28;20290;-75
2022/04/15 07:50:39;;;;;;;11.17;8.60;;;;;;;;;;5055344;28;20304;-75
2022/04/15 07:53:04;;;;;;;17.13;9.03;;;9.00;99.90;;;;;;5038027;28;20284;-76
2022/04/15 07:55:31;;;;;;;15.53;8.90;;;;;;;;;;5055292;28;20283;-75
2022/04/15 07:57:56;;;;;;;15.87;10.17;;;9.70;99.90;;;;;;5055022;28;20044;-76
2022/04/15 08:00:22;;;;;;;13.67;9.43;;;9.90;99.90;;;;;;5054802;28;20287;-75
2022/04/15 08:02:48;;;;;;;11.33;8.13;;;10.10;99.90;;;;;;5055709;28;20045;-75
2022/04/15 08:05:14;;;;;;;12.57;8.57;;;10.10;99.90;;;;;;5055207;28;20370;-75
2022/04/15 08:07:40;;;;;;;12.67;8.33;;;10.20;99.90;;;;;;5055043;28;20376;-75
2022/04/15 08:10:06;;;;;;;12.87;9.17;;;10.20;99.90;;;;;;5054833;28;20047;-75
2022/04/15 08:12:32;;;;;;;13.60;8.37;;;10.20;99.90;;;;;;5020414;28;20056;-75
2022/04/15 08:14:59;;;;;;;11.50;7.97;;;10.10;99.90;;;;;;5055473;28;20608;-75
2022/04/15 08:17:25;;;;;;;11.63;7.60;;;10.10;99.90;;;;;;5055352;28;20345;-75
2022/04/15 08:19:51;;;;;;;11.80;7.07;;;10.10;99.90;;;;;;5054872;28;20275;-75
2022/04/15 08:22:16;;;;;;;16.80;7.40;;;10.10;99.90;;;;;;5055346;28;20128;-75
2022/04/15 08:24:43;;;;;;;12.50;7.23;;;10.10;99.90;;;;;;5054380;28;20720;-75
2022/04/15 08:27:12;;;;;;;10.23;6.47;;;10.00;99.90;;;;;;5054747;28;20127;-76
2022/04/15 08:29:39;;;;;;;14.33;7.27;;;10.10;99.90;;;;;;5054598;28;20338;-75
2022/04/15 08:32:08;;;;;;;13.87;6.40;;;10.10;99.90;;;;;;5054686;28;20271;-75
2022/04/15 08:34:37;;;;;;;11.13;5.63;;;10.10;99.90;;;;;;5055321;28;20345;-75
2022/04/15 08:37:04;;;;;;;11.10;5.87;;;10.10;99.90;;;;;;5053830;28;20298;-75
2022/04/15 08:39:30;;;;;;;11.87;6.03;;;10.10;99.90;;;;;;5036525;28;20632;-75
2022/04/15 08:41:58;;;;;;;10.63;6.63;;;10.10;99.90;;;;;;5054206;28;20300;-75
2022/04/15 08:44:25;;;;;;;12.03;7.03;;;10.10;99.90;;;;;;5054313;28;20279;-74
2022/04/15 08:46:51;;;;;;;15.23;7.07;;;10.10;99.90;;;;;;5036765;28;20295;-75
2022/04/15 08:49:19;;;;;;;10.60;5.77;;;10.20;99.90;;;;;;5054793;28;20307;-76
2022/04/15 08:51:50;;;;;;;11.47;4.80;;;10.20;99.90;;;;;;5054199;28;20052;-75
2022/04/15 08:54:16;;;;;;;8.90;5.07;;;10.20;99.90;;;;;;5054161;28;20306;-76
2022/04/15 08:56:43;;;;;;;10.47;4.70;;;10.30;99.90;;;;;;5054589;28;20737;-75
2022/04/15 08:59:09;;;;;;;9.53;4.13;;;10.40;99.90;;;;;;5054627;28;20053;-76
2022/04/15 09:01:35;;;;;;;10.43;4.70;;;10.60;99.90;;;;;;5036442;28;20341;-75
2022/04/15 09:04:03;;;;;;;12.67;5.13;;;10.80;99.90;;;;;;5054816;28;20697;-75
2022/04/15 09:06:31;;;;;;;7.83;4.20;;;10.90;99.90;;;;;;5053983;28;20319;-75
2022/04/15 09:09:14;;;;;;;10.17;4.70;;;11.10;99.90;;;;;;5053873;28;20386;-75
2022/04/15 09:11:41;;;;;;;10.13;4.37;;;11.30;99.90;;;;;;5054474;28;20286;-75
2022/04/15 09:14:10;;;;;;;9.87;4.30;;;11.40;99.90;;;;;;5053834;28;20289;-75
2022/04/15 09:16:40;;;;;;;8.10;4.23;;;11.50;99.90;;;;;;5053485;28;20294;-76
2022/04/15 09:19:07;;;;;;;10.50;4.57;;;11.60;99.90;;;;;;5053718;28;20798;-75
2022/04/15 09:21:33;;;;;;;11.93;4.57;;;11.80;99.90;;;;;;5053634;28;20287;-75
2022/04/15 09:23:58;;;;;;;8.83;4.17;;;11.90;99.90;;;;;;5053717;28;20280;-75
2022/04/15 09:26:25;;;;;;;10.30;4.20;;;11.80;99.90;;;;;;5053731;28;20103;-76
2022/04/15 09:28:56;;;;;;;7.97;4.30;;;11.80;99.90;;;;;;5053571;28;20077;-75
2022/04/15 09:31:23;;;;;;;9.97;4.47;;;11.80;99.90;;;;;;5020185;28;20280;-75
2022/04/15 09:33:59;;;;;;;9.07;4.70;;;11.70;99.90;;;;;;5053493;28;20307;-75
2022/04/15 09:36:26;;;;;;;7.13;4.13;;;11.60;99.90;;;;;;5035880;28;20291;-75
2022/04/15 09:39:14;;;;;;;7.63;4.37;;;11.60;99.90;;;;;;5053448;28;20290;-75
2022/04/15 09:41:42;;;;;;;7.37;4.53;;;11.60;99.90;;;;;;5053480;28;20271;-75
2022/04/15 09:44:12;;;;;;;8.50;3.90;;;11.60;99.90;;;;;;5053334;28;20298;-75
2022/04/15 09:46:41;;;;;;;6.53;3.73;;;11.60;99.90;;;;;;5053830;28;20290;-75
2022/04/15 09:49:08;;;;;;;9.93;4.00;;;11.60;99.90;;;;;;5052966;28;20300;-75
2022/04/15 09:51:40;;;;;;;8.30;3.50;;;11.50;99.90;;;;;;5053279;28;20786;-75
2022/04/15 09:54:09;;;;;;;8.33;4.20;;;11.40;99.90;;;;;;5053222;28;20291;-75
2022/04/15 09:56:39;;;;;;;7.83;4.10;;;11.40;99.90;;;;;;5035955;28;20691;-75
2022/04/15 09:59:11;;;;;;;6.00;3.40;;;11.40;99.90;;;;;;5054123;28;20279;-76
2022/04/15 10:01:48;;;;;;;8.70;3.53;;;11.50;99.70;;;;;;5052920;28;20757;-75
2022/04/15 10:04:14;;;;;;;6.83;3.53;;;11.60;98.60;;;;;;5035999;28;20295;-76
2022/04/15 10:06:42;;;;;;;8.03;3.80;;;11.60;99.70;;;;;;5053685;28;20291;-75
2022/04/15 10:09:12;;;;;;;9.07;3.80;;;11.70;99.90;;;;;;5053151;28;20037;-76
2022/04/15 10:11:43;;;;;;;8.27;3.87;;;11.80;99.60;;;;;;5053131;28;20280;-75
2022/04/15 10:14:13;;;;;;;11.27;4.30;;;11.80;99.80;;;;;;5053738;28;20271;-75
2022/04/15 10:16:40;;;;;;;6.63;3.67;;;11.80;99.40;;;;;;5053087;28;20276;-75
2022/04/15 10:19:07;;;;;;;9.07;3.60;;;11.70;98.30;;;;;;5053037;28;20319;-76
2022/04/15 10:21:44;;;;;;;7.83;3.80;;;11.70;98.70;;;;;;5036475;28;20370;-75
2022/04/15 10:24:10;;;;;;;8.30;4.30;;;11.70;99.50;;;;;;5055896;28;20282;-76
2022/04/15 10:26:39;;;;;;;7.60;4.13;;;11.70;99.40;;;;;;5057243;28;20290;-75
2022/04/15 10:29:05;;;;;;;13.97;5.00;;;11.70;99.90;;;;;;5057366;28;20357;-76
2022/04/15 10:31:45;;;;;;;8.77;4.60;;;11.80;99.60;;;;;;5056863;28;20287;-75
2022/04/15 10:34:12;;;;;;;8.23;4.73;;;12.00;99.90;;;;;;5056553;28;20802;-75
2022/04/15 10:36:42;;;;;;;8.30;5.33;;;12.10;99.90;;;;;;5056717;28;20387;-75
2022/04/15 10:39:09;;;;;;;9.50;5.43;;;12.30;99.90;;;;;;5056725;28;20310;-75
2022/04/15 10:41:48;;;;;;;8.60;4.70;;;12.30;99.40;;;;;;5056757;28;20330;-74
2022/04/15 10:44:33;;;;;;;7.23;4.43;;;12.30;98.40;;;;;;5057208;28;20287;-75
2022/04/15 10:47:19;;;;;;;;;;;12.20;98.00;;;;;;5056412;28;20417;-75
2022/04/15 10:49:55;;;;;;;6.80;4.50;;;12.20;98.60;;;;;;5046485;28;19972;-75
2022/04/15 10:52:24;;;;;;;8.80;5.33;;;12.20;98.30;;;;;;5039764;28;20053;-76
2022/04/15 10:55:02;;;;;;;8.63;4.60;;;12.10;97.70;;;;;;5039032;28;20288;-75
2022/04/15 10:57:40;;;;;;;9.97;5.13;;;12.10;97.70;;;;;;5056721;28;20291;-75
2022/04/15 11:03:21;;;;;;;9.93;4.83;;;12.10;98.40;;;;;;5039539;28;20727;-75
2022/04/15 11:05:48;;;;;;;9.17;5.13;;;12.20;98.60;;;;;;5056703;28;20290;-75
2022/04/15 11:08:16;;;;;;;10.27;4.87;;;12.20;99.00;;;;;;5056214;28;20763;-75
2022/04/15 11:11:03;;;;;;;8.60;5.20;;;12.20;98.60;;;;;;5056042;28;20383;-75
2022/04/15 11:13:44;;;;;;;10.93;5.80;;;12.30;98.00;;;;;;5056216;28;20267;-75
2022/04/15 11:16:12;;;;;;;8.17;5.60;;;12.30;96.70;;;;;;5054945;28;20298;-76
2022/04/15 11:18:53;;;;;;;9.63;5.30;;;12.20;98.40;;;;;;5038415;28;20299;-76
2022/04/15 11:21:21;;;;;;;6.93;4.70;;;12.30;97.00;;;;;;5056250;28;20279;-75
2022/04/15 11:23:59;;;;;;;7.93;5.43;;;12.20;96.90;;;;;;5055953;28;20640;-75
2022/04/15 11:26:26;;;;;;;14.03;5.63;;;12.10;96.70;;;;;;5055963;28;20282;-76
2022/04/15 11:28:54;;;;;;;10.37;6.20;;;12.00;97.30;;;;;;5055743;28;20697;-76
2022/04/15 11:31:27;;;;;;;9.43;5.87;;;12.10;98.80;;;;;;5056555;28;20609;-76
2022/04/15 11:33:55;;;;;;;11.63;6.00;;;12.20;98.90;;;;;;5054319;28;20378;-75
2022/04/15 11:36:22;;;;;;;9.60;5.30;;;12.30;98.90;;;;;;5038185;28;20662;-76
2022/04/15 11:38:50;;;;;;;9.57;5.63;;;12.50;98.00;;;;;;5038128;28;20290;-75
2022/04/15 11:41:21;;;;;;;10.80;6.00;;;12.40;96.90;;;;;;5055274;28;20319;-75
2022/04/15 11:43:57;;;;;;;12.70;5.20;;;12.30;96.70;;;;;;5055600;28;20442;-75
2022/04/15 11:46:23;;;;;;;10.87;5.17;;;12.30;97.30;;;;;;5055492;28;20284;-75
2022/04/15 11:48:50;;;;;;;9.90;5.50;;;12.30;97.40;;;;;;5055666;28;20346;-75
2022/04/15 11:51:22;;;;;;;7.40;5.10;;;12.30;98.20;;;;;;5055459;28;20319;-76
2022/04/15 11:53:48;;;;;;;10.33;5.93;;;12.30;97.50;;;;;;5055672;28;20279;-75
2022/04/15 11:56:15;;;;;;;10.30;6.00;;;12.40;98.30;;;;;;5056158;28;20280;-75
2022/04/15 11:58:43;;;;;;;11.10;5.53;;;12.40;97.90;;;;;;5055539;28;20284;-76
2022/04/15 12:01:09;;;;;;;8.87;5.73;;;12.40;96.90;;;;;;5055230;28;20405;-75
2022/04/15 12:03:39;;;;;;;9.37;4.87;;;12.40;97.40;;;;;;5054815;28;20333;-75
2022/04/15 12:06:06;;;;;;;7.83;5.37;;;12.40;97.60;;;;;;5055099;28;20136;-75
2022/04/15 12:08:31;;;;;;;9.90;5.30;;;12.40;96.40;;;;;;5055002;28;20275;-76
2022/04/15 12:10:58;;;;;;;9.00;5.70;;;12.30;97.00;;;;;;5055535;28;20294;-75
2022/04/15 12:13:23;;;;;;;7.87;5.37;;;12.20;97.20;;;;;;5055079;28;20053;-75
2022/04/15 12:15:49;;;;;;;9.00;5.60;;;12.20;98.40;;;;;;5054817;28;20340;-75
2022/04/15 12:18:16;;;;;;;10.53;5.20;;;12.20;97.40;;;;;;5054975;28;20049;-75
2022/04/15 12:20:43;;;;;;;7.53;5.50;;;12.20;97.90;;;;;;5054897;28;20045;-76
2022/04/15 12:23:14;;;;;;;10.93;5.57;;;12.10;98.60;;;;;;5054833;28;20311;-76
2022/04/15 12:31:38;;;;;;;9.10;5.60;;;11.90;99.40;;;;;;5055219;28;20056;-75
2022/04/15 12:34:03;;;;;;;10.53;5.67;;;11.90;99.50;;;;;;5045341;28;20709;-76
2022/04/15 12:36:42;;;;;;;9.23;5.07;;;11.90;99.90;;;;;;5054430;28;20286;-76
2022/04/15 12:39:09;;;;;;;7.97;4.90;;;12.00;99.20;;;;;;5037742;28;20061;-75
2022/04/15 12:41:48;;;;;;;9.47;5.23;;;11.90;99.00;;;;;;5037050;28;20299;-75
2022/04/15 12:44:23;;;;;;;8.30;5.33;;;12.00;98.80;;;;;;5053956;28;20287;-76
2022/04/15 12:46:58;;;;;;;8.97;5.83;;;12.00;98.70;;;;;;5037309;28;20650;-75
2022/04/15 12:49:34;;;;;;;11.77;5.75;;;12.00;98.90;;;;;;5054497;28;20346;-75
2022/04/15 12:52:14;;;;;;;9.50;5.23;;;12.00;98.70;;;;;;5054244;28;20064;-75
2022/04/15 12:54:58;;;;;;;9.77;5.80;;;12.00;99.30;;;;;;5054755;28;20619;-75
2022/04/15 12:57:35;;;;;;;10.53;6.13;;;12.00;98.70;;;;;;5054126;28;20371;-75
2022/04/15 13:00:04;;;;;;;10.33;5.80;;;11.80;99.00;;;;;;5054025;28;20279;-75
2022/04/15 13:02:31;;;;;;;10.63;6.57;;;11.80;99.90;;;;;;5054017;28;20329;-75
2022/04/15 13:04:57;;;;;;;10.67;6.10;;;11.80;99.90;;;;;;5054006;28;20286;-75
2022/04/15 13:07:24;;;;;;;11.93;6.07;;;11.90;99.90;;;;;;5053942;28;20280;-75
2022/04/15 13:09:50;;;;;;;10.57;5.60;;;11.90;99.90;;;;;;5053795;28;20306;-75
2022/04/15 13:12:17;;;;;;;9.07;5.80;;;11.90;99.90;;;;;;5053632;28;20287;-75
2022/04/15 13:14:45;;;;;;;8.57;5.10;;;11.90;99.90;;;;;;5036275;28;20344;-75
2022/04/15 13:17:11;;;;;;;10.13;5.30;;;12.00;99.90;;;;;;5054378;28;20287;-76
2022/04/15 13:19:37;;;;;;;11.03;5.03;;;12.10;99.90;;;;;;5054232;28;20421;-76